createdAt,value
2023-04-22T00:01:35.670Z,18.02
2023-04-22T00:04:04.112Z,18.00
2023-04-22T00:06:32.655Z,17.97
2023-04-22T00:09:00.794Z,17.96
2023-04-22T00:11:29.217Z,17.93
2023-04-22T00:13:57.389Z,17.85
2023-04-22T00:16:26.534Z,17.77
2023-04-22T00:18:54.572Z,17.71
2023-04-22T00:21:22.919Z,17.72
2023-04-22T00:23:50.975Z,17.73
2023-04-22T00:26:19.183Z,17.74
2023-04-22T00:28:47.527Z,17.98
2023-04-22T00:31:15.801Z,18.03
2023-04-22T00:33:44.934Z,18.02
2023-04-22T00:36:13.318Z,17.99
2023-04-22T00:38:44.413Z,17.93
2023-04-22T00:41:12.748Z,17.88
2023-04-22T00:43:41.336Z,17.68
2023-04-22T00:46:09.704Z,17.48
2023-04-22T00:48:37.987Z,17.45
2023-04-22T00:51:06.197Z,17.45
2023-04-22T00:53:34.349Z,17.41
2023-04-22T00:56:02.710Z,17.34
2023-04-22T00:58:31.093Z,17.27
2023-04-22T01:01:00.327Z,17.19
2023-04-22T01:03:30.907Z,17.09
2023-04-22T01:05:59.456Z,17.02
2023-04-22T01:08:29.038Z,16.95
2023-04-22T01:10:57.916Z,16.90
2023-04-22T01:13:26.297Z,16.86
2023-04-22T01:15:55.129Z,16.84
2023-04-22T01:20:59.537Z,15.67
2023-04-22T01:23:27.667Z,16.59
2023-04-22T01:25:56.320Z,16.66
2023-04-22T01:28:24.693Z,16.62
2023-04-22T01:30:52.855Z,16.57
2023-04-22T01:33:21.129Z,16.54
2023-04-22T01:35:49.624Z,16.48
2023-04-22T01:38:18.461Z,16.45
2023-04-22T01:40:46.702Z,16.46
2023-04-22T01:43:14.849Z,16.48
2023-04-22T01:45:43.139Z,16.49
2023-04-22T01:48:11.454Z,16.47
2023-04-22T01:50:39.795Z,16.42
2023-04-22T01:53:08.622Z,16.37
2023-04-22T01:55:37.472Z,16.32
2023-04-22T01:58:05.653Z,16.28
2023-04-22T02:00:33.788Z,16.21
2023-04-22T02:03:02.161Z,16.15
2023-04-22T02:05:30.692Z,16.11
2023-04-22T02:07:59.126Z,16.09
2023-04-22T02:10:27.255Z,16.09
2023-04-22T02:12:55.615Z,16.08
2023-04-22T02:15:23.725Z,16.07
2023-04-22T02:17:53.117Z,16.07
2023-04-22T02:20:21.481Z,16.29
2023-04-22T02:22:50.943Z,16.36
2023-04-22T02:25:21.159Z,16.35
2023-04-22T02:27:51.112Z,16.34
2023-04-22T02:30:19.704Z,16.31
2023-04-22T02:32:48.111Z,16.30
2023-04-22T02:35:16.465Z,16.27
2023-04-22T02:37:44.842Z,16.24
2023-04-22T02:40:12.914Z,16.24
2023-04-22T02:42:41.195Z,16.28
2023-04-22T02:45:10.518Z,16.31
2023-04-22T02:47:39.417Z,16.30
2023-04-22T02:50:08.490Z,16.25
2023-04-22T02:52:36.677Z,16.21
2023-04-22T02:55:05.962Z,16.18
2023-04-22T02:57:34.287Z,16.14
2023-04-22T03:00:02.551Z,16.11
2023-04-22T03:02:32.199Z,16.10
2023-04-22T03:05:08.806Z,16.12
2023-04-22T03:07:37.495Z,16.16
2023-04-22T03:10:07.034Z,16.23
2023-04-22T03:12:35.690Z,16.36
2023-04-22T03:15:04.778Z,16.53
2023-04-22T03:17:33.621Z,16.74
2023-04-22T03:20:03.299Z,16.95
2023-04-22T03:22:31.666Z,17.11
2023-04-22T03:25:00.486Z,17.27
2023-04-22T03:27:30.370Z,17.38
2023-04-22T03:29:58.614Z,17.48
2023-04-22T03:32:27.143Z,17.59
2023-04-22T03:35:17.201Z,17.74
2023-04-22T03:37:46.835Z,17.91
2023-04-22T03:40:16.563Z,18.05
2023-04-22T03:42:44.821Z,18.17
2023-04-22T03:45:13.390Z,18.30
2023-04-22T03:47:44.981Z,18.46
2023-04-22T03:50:21.534Z,18.68
2023-04-22T03:52:50.632Z,18.92
2023-04-22T03:55:20.660Z,19.08
2023-04-22T03:57:49.752Z,19.23
2023-04-22T04:00:17.967Z,19.34
2023-04-22T04:02:50.054Z,19.43
2023-04-22T04:05:19.366Z,19.52
2023-04-22T04:07:48.802Z,19.63
2023-04-22T04:10:16.829Z,19.75
2023-04-22T04:12:45.055Z,19.90
2023-04-22T04:15:13.632Z,19.97
2023-04-22T04:17:42.423Z,20.24
2023-04-22T04:20:11.242Z,20.65
2023-04-22T04:22:40.615Z,20.91
2023-04-22T04:25:09.225Z,21.11
2023-04-22T04:27:41.882Z,21.60
2023-04-22T04:30:12.718Z,22.12
2023-04-22T04:32:45.930Z,22.73
2023-04-22T04:35:15.513Z,23.41
2023-04-22T04:37:47.582Z,23.99
2023-04-22T04:40:16.682Z,24.50
2023-04-22T04:42:55.919Z,25.18
2023-04-22T04:45:27.059Z,25.84
2023-04-22T04:47:55.492Z,26.47
2023-04-22T04:50:30.525Z,27.06
2023-04-22T04:53:02.706Z,27.67
2023-04-22T04:55:38.128Z,28.45
2023-04-22T04:58:10.391Z,29.00
2023-04-22T05:00:38.564Z,29.45
2023-04-22T05:03:07.164Z,29.79
2023-04-22T05:05:35.917Z,30.14
2023-04-22T05:08:03.885Z,30.49
2023-04-22T05:10:33.121Z,30.88
2023-04-22T05:13:04.109Z,31.22
2023-04-22T05:15:34.274Z,31.33
2023-04-22T05:18:02.704Z,31.77
2023-04-22T05:20:33.172Z,32.17
2023-04-22T05:23:04.628Z,32.55
2023-04-22T05:25:33.041Z,32.77
2023-04-22T05:28:05.785Z,32.95
2023-04-22T05:30:38.774Z,33.09
2023-04-22T05:33:08.962Z,33.29
2023-04-22T05:35:38.111Z,33.63
2023-04-22T05:38:06.539Z,33.65
2023-04-22T05:40:36.182Z,33.84
2023-04-22T05:43:05.203Z,33.94
2023-04-22T05:45:34.309Z,33.93
2023-04-22T05:48:03.192Z,33.76
2023-04-22T05:50:34.104Z,33.28
2023-04-22T05:53:07.495Z,32.85
2023-04-22T05:55:35.781Z,32.66
2023-04-22T05:58:03.976Z,32.49
2023-04-22T06:00:42.994Z,32.29
2023-04-22T06:03:21.506Z,32.05
2023-04-22T06:05:50.123Z,31.88
2023-04-22T06:08:19.825Z,31.71
2023-04-22T06:10:48.386Z,31.45
2023-04-22T06:13:17.956Z,31.13
2023-04-22T06:15:46.811Z,30.81
2023-04-22T06:18:15.130Z,30.55
2023-04-22T06:20:43.367Z,30.30
2023-04-22T06:23:11.427Z,30.11
2023-04-22T06:25:39.472Z,29.97
2023-04-22T06:28:07.509Z,29.85
2023-04-22T06:30:36.228Z,29.69
2023-04-22T06:33:04.633Z,29.54
2023-04-22T06:35:33.316Z,29.45
2023-04-22T06:38:01.904Z,29.41
2023-04-22T06:40:33.393Z,29.37
2023-04-22T06:43:09.422Z,29.38
2023-04-22T06:46:03.650Z,29.44
2023-04-22T06:48:41.194Z,29.63
2023-04-22T06:51:18.796Z,29.84
2023-04-22T06:53:47.073Z,30.03
2023-04-22T06:56:17.250Z,30.18
2023-04-22T06:58:45.575Z,30.18
2023-04-22T07:01:13.773Z,30.14
2023-04-22T07:03:42.741Z,30.04
2023-04-22T07:06:12.866Z,29.85
2023-04-22T07:08:42.169Z,29.53
2023-04-22T07:11:12.553Z,29.51
2023-04-22T07:14:14.862Z,29.44
2023-04-22T07:16:43.242Z,29.40
2023-04-22T07:19:11.742Z,29.38
2023-04-22T07:21:39.872Z,29.30
2023-04-22T07:24:12.265Z,28.99
2023-04-22T07:26:41.276Z,28.74
2023-04-22T07:29:09.433Z,28.73
2023-04-22T07:31:37.771Z,28.79
2023-04-22T07:34:06.418Z,28.82
2023-04-22T07:36:35.040Z,28.87
2023-04-22T07:39:03.385Z,28.89
2023-04-22T07:41:31.983Z,28.84
2023-04-22T07:44:00.452Z,28.76
2023-04-22T07:46:29.132Z,28.67
2023-04-22T07:48:57.414Z,28.49
2023-04-22T07:51:26.202Z,28.35
2023-04-22T07:53:54.382Z,28.26
2023-04-22T07:56:22.912Z,28.22
2023-04-22T07:58:51.041Z,28.07
2023-04-22T08:01:20.214Z,27.87
2023-04-22T08:03:48.727Z,27.73
2023-04-22T08:06:17.544Z,27.60
2023-04-22T08:08:46.098Z,27.52
2023-04-22T08:11:14.171Z,27.46
2023-04-22T08:13:42.351Z,27.47
2023-04-22T08:16:10.830Z,27.52
2023-04-22T08:18:39.310Z,27.57
2023-04-22T08:21:07.612Z,27.62
2023-04-22T08:23:35.869Z,27.70
2023-04-22T08:26:04.248Z,27.79
2023-04-22T08:28:32.528Z,27.88
2023-04-22T08:31:01.415Z,27.96
2023-04-22T08:33:29.800Z,28.01
2023-04-22T08:35:58.186Z,27.90
2023-04-22T08:38:26.499Z,27.80
2023-04-22T08:40:56.480Z,27.70
2023-04-22T08:43:27.735Z,27.63
2023-04-22T08:45:55.907Z,27.59
2023-04-22T08:48:24.184Z,27.62
2023-04-22T08:50:52.235Z,27.68
2023-04-22T08:53:24.885Z,27.64
2023-04-22T08:55:53.562Z,27.53
2023-04-22T08:58:23.022Z,27.41
2023-04-22T09:00:51.453Z,27.35
2023-04-22T09:03:20.071Z,27.31
2023-04-22T09:05:48.493Z,27.21
2023-04-22T09:08:16.651Z,27.12
2023-04-22T09:10:44.728Z,27.06
2023-04-22T09:13:15.257Z,26.90
2023-04-22T09:15:46.463Z,26.77
2023-04-22T09:18:18.293Z,26.72
2023-04-22T09:20:49.408Z,26.65
2023-04-22T09:23:17.886Z,26.61
2023-04-22T09:25:46.791Z,26.69
2023-04-22T09:28:18.953Z,26.75
2023-04-22T09:30:47.262Z,26.76
2023-04-22T09:33:15.771Z,26.75
2023-04-22T09:35:43.945Z,26.75
2023-04-22T09:38:12.837Z,26.72
2023-04-22T09:40:44.297Z,26.68
2023-04-22T09:43:12.594Z,26.69
2023-04-22T09:45:42.001Z,26.71
2023-04-22T09:48:10.849Z,26.70
2023-04-22T09:50:40.447Z,26.73
2023-04-22T09:53:10.215Z,26.76
2023-04-22T09:55:40.454Z,26.85
2023-04-22T09:58:13.138Z,26.94
2023-04-22T10:00:49.681Z,27.05
2023-04-22T10:03:19.197Z,27.19
2023-04-22T10:05:47.597Z,27.29
2023-04-22T10:08:16.461Z,27.26
2023-04-22T10:10:45.047Z,27.22
2023-04-22T10:13:17.251Z,27.30
2023-04-22T10:15:53.098Z,27.36
2023-04-22T10:18:28.336Z,27.42
2023-04-22T10:20:56.962Z,27.45
2023-04-22T10:23:25.191Z,27.48
2023-04-22T10:25:54.501Z,27.53
2023-04-22T10:28:23.597Z,27.58
2023-04-22T10:30:51.721Z,27.62
2023-04-22T10:33:32.339Z,27.66
2023-04-22T10:36:08.220Z,27.62
2023-04-22T10:38:37.804Z,27.47
2023-04-22T10:41:06.179Z,27.26
2023-04-22T10:43:47.560Z,27.02
2023-04-22T10:46:35.177Z,26.77
2023-04-22T10:49:10.590Z,26.59
2023-04-22T10:51:46.318Z,26.45
2023-04-22T10:54:28.767Z,26.41
2023-04-22T10:57:10.511Z,26.44
2023-04-22T10:59:43.283Z,26.47
2023-04-22T11:02:16.091Z,26.50
2023-04-22T11:04:45.305Z,26.51
2023-04-22T11:07:30.913Z,26.48
2023-04-22T11:10:01.279Z,26.42
2023-04-22T11:12:35.451Z,26.38
2023-04-22T11:15:07.170Z,26.39
2023-04-22T11:17:36.383Z,26.47
2023-04-22T11:20:05.661Z,26.56
2023-04-22T11:22:57.000Z,26.61
2023-04-22T11:25:26.151Z,26.60
2023-04-22T11:27:55.393Z,26.51
2023-04-22T11:30:26.008Z,26.45
2023-04-22T11:32:59.997Z,26.45
2023-04-22T11:35:32.630Z,26.50
2023-04-22T11:38:02.435Z,26.56
2023-04-22T11:40:43.894Z,26.58
2023-04-22T11:43:14.481Z,26.67
2023-04-22T11:45:42.740Z,26.81
2023-04-22T11:48:11.738Z,27.01
2023-04-22T11:50:42.370Z,27.17
2023-04-22T11:53:21.115Z,27.27
2023-04-22T11:55:53.159Z,27.30
2023-04-22T11:58:26.788Z,27.25
2023-04-22T12:00:56.181Z,27.23
2023-04-22T12:03:25.080Z,27.23
2023-04-22T12:05:58.022Z,27.36
2023-04-22T12:08:31.545Z,27.45
2023-04-22T12:11:01.919Z,27.57
2023-04-22T12:13:33.174Z,27.62
2023-04-22T12:16:02.796Z,27.69
2023-04-22T12:18:35.179Z,27.61
2023-04-22T12:21:12.983Z,27.40
2023-04-22T12:23:48.619Z,27.18
2023-04-22T12:26:17.786Z,27.06
2023-04-22T12:28:45.868Z,27.00
2023-04-22T12:31:14.876Z,27.00
2023-04-22T12:33:43.225Z,26.99
2023-04-22T12:36:11.669Z,27.05
2023-04-22T12:38:39.906Z,27.19
2023-04-22T12:41:08.136Z,27.32
2023-04-22T12:43:37.198Z,27.27
2023-04-22T12:46:07.033Z,27.14
2023-04-22T12:48:37.757Z,27.02
2023-04-22T12:51:06.986Z,26.89
2023-04-22T12:53:35.548Z,26.79
2023-04-22T12:56:06.494Z,26.72
2023-04-22T12:58:38.736Z,26.72
2023-04-22T13:01:13.378Z,26.80
2023-04-22T13:03:41.743Z,26.78
2023-04-22T13:06:10.219Z,26.71
2023-04-22T13:08:38.722Z,26.68
2023-04-22T13:11:07.080Z,26.70
2023-04-22T13:13:35.893Z,26.71
2023-04-22T13:16:04.112Z,26.72
2023-04-22T13:18:32.444Z,26.74
2023-04-22T13:21:00.943Z,26.71
2023-04-22T13:23:29.827Z,26.68
2023-04-22T13:25:57.996Z,26.70
2023-04-22T13:28:26.235Z,26.75
2023-04-22T13:30:55.588Z,26.84
2023-04-22T13:33:23.867Z,26.94
2023-04-22T13:35:52.161Z,27.06
2023-04-22T13:39:09.975Z,25.98
2023-04-22T13:41:38.052Z,26.85
2023-04-22T13:44:06.342Z,26.85
2023-04-22T13:46:34.582Z,26.71
2023-04-22T13:49:02.740Z,26.58
2023-04-22T13:51:32.399Z,26.49
2023-04-22T13:54:01.385Z,26.44
2023-04-22T13:56:29.873Z,26.42
2023-04-22T13:58:58.447Z,26.32
2023-04-22T14:01:26.695Z,26.21
2023-04-22T14:03:55.418Z,26.12
2023-04-22T14:06:23.723Z,26.07
2023-04-22T14:08:51.970Z,25.98
2023-04-22T14:11:20.358Z,25.90
2023-04-22T14:13:48.755Z,25.91
2023-04-22T14:16:18.023Z,25.95
2023-04-22T14:18:46.451Z,25.88
2023-04-22T14:21:14.696Z,25.81
2023-04-22T14:23:43.081Z,25.74
2023-04-22T14:26:12.068Z,25.70
2023-04-22T14:28:40.410Z,25.65
2023-04-22T14:31:08.657Z,25.60
2023-04-22T14:33:36.918Z,25.53
2023-04-22T14:36:05.690Z,25.46
2023-04-22T14:38:33.719Z,25.44
2023-04-22T14:41:01.864Z,25.44
2023-04-22T14:43:32.032Z,25.48
2023-04-22T14:46:01.999Z,25.51
2023-04-22T14:48:32.421Z,25.54
2023-04-22T14:51:01.393Z,25.53
2023-04-22T14:53:29.691Z,25.54
2023-04-22T14:55:57.798Z,25.55
2023-04-22T14:58:27.192Z,25.53
2023-04-22T15:00:55.784Z,25.52
2023-04-22T15:03:24.911Z,25.51
2023-04-22T15:05:56.599Z,25.48
2023-04-22T15:08:26.119Z,25.40
2023-04-22T15:10:54.373Z,25.29
2023-04-22T15:13:26.339Z,25.21
2023-04-22T15:15:54.504Z,25.18
2023-04-22T15:18:22.998Z,25.17
2023-04-22T15:20:51.476Z,25.15
2023-04-22T15:23:19.495Z,25.14
2023-04-22T15:25:47.836Z,25.05
2023-04-22T15:28:16.048Z,25.03
2023-04-22T15:30:44.598Z,25.13
2023-04-22T15:33:12.713Z,25.17
2023-04-22T15:35:43.228Z,25.18
2023-04-22T15:38:11.677Z,25.14
2023-04-22T15:40:39.703Z,25.08
2023-04-22T15:43:08.232Z,25.04
2023-04-22T15:45:36.408Z,25.04
2023-04-22T15:48:06.041Z,25.02
2023-04-22T15:50:34.309Z,24.98
2023-04-22T15:53:02.613Z,24.96
2023-04-22T15:55:31.310Z,24.92
2023-04-22T15:57:59.850Z,24.86
2023-04-22T16:00:28.126Z,24.78
2023-04-22T16:02:56.660Z,24.74
2023-04-22T16:05:25.290Z,24.72
2023-04-22T16:07:53.792Z,24.69
2023-04-22T16:10:23.008Z,24.66
2023-04-22T16:12:51.209Z,24.65
2023-04-22T16:15:19.431Z,24.62
2023-04-22T16:17:47.722Z,24.58
2023-04-22T16:20:15.719Z,24.53
2023-04-22T16:22:44.066Z,24.49
2023-04-22T16:25:12.327Z,24.47
2023-04-22T16:27:41.438Z,24.45
2023-04-22T16:30:10.118Z,24.40
2023-04-22T16:32:38.451Z,24.37
2023-04-22T16:35:07.808Z,24.34
2023-04-22T16:37:36.942Z,24.30
2023-04-22T16:40:06.360Z,24.27
2023-04-22T16:42:34.790Z,24.23
2023-04-22T16:45:02.960Z,24.18
2023-04-22T16:47:31.469Z,24.13
2023-04-22T16:49:59.760Z,24.08
2023-04-22T16:52:28.024Z,24.03
2023-04-22T16:54:56.079Z,23.98
2023-04-22T16:57:24.111Z,23.93
2023-04-22T16:59:52.323Z,23.89
2023-04-22T17:02:21.008Z,23.84
2023-04-22T17:04:49.302Z,23.79
2023-04-22T17:07:17.467Z,23.74
2023-04-22T17:09:45.640Z,23.67
2023-04-22T17:12:13.922Z,23.59
2023-04-22T17:14:42.087Z,23.52
2023-04-22T17:17:10.294Z,23.45
2023-04-22T17:19:38.672Z,23.40
2023-04-22T17:22:07.188Z,23.35
2023-04-22T17:24:35.923Z,23.31
2023-04-22T17:27:04.817Z,23.26
2023-04-22T17:29:33.748Z,23.23
2023-04-22T17:32:01.988Z,23.22
2023-04-22T17:34:30.121Z,23.20
2023-04-22T17:36:58.339Z,23.17
2023-04-22T17:39:26.718Z,23.15
2023-04-22T17:41:54.966Z,23.11
2023-04-22T17:44:23.271Z,23.08
2023-04-22T17:46:51.679Z,23.04
2023-04-22T17:49:20.033Z,23.00
2023-04-22T17:51:48.097Z,22.96
2023-04-22T17:54:16.524Z,22.92
2023-04-22T17:56:45.177Z,22.87
2023-04-22T17:59:13.774Z,22.82
2023-04-22T18:01:43.228Z,22.79
2023-04-22T18:04:11.621Z,22.78
2023-04-22T18:06:40.069Z,22.78
2023-04-22T18:09:08.628Z,22.77
2023-04-22T18:11:37.709Z,22.71
2023-04-22T18:14:06.132Z,22.65
2023-04-22T18:16:34.288Z,22.59
2023-04-22T18:19:04.280Z,22.54
2023-04-22T18:21:34.024Z,22.49
2023-04-22T18:24:04.087Z,22.44
2023-04-22T18:26:32.403Z,22.35
2023-04-22T18:29:00.695Z,22.29
2023-04-22T18:31:29.363Z,22.25
2023-04-22T18:33:57.839Z,22.22
2023-04-22T18:36:27.676Z,22.19
2023-04-22T18:38:55.916Z,22.17
2023-04-22T18:41:25.635Z,22.15
2023-04-22T18:43:53.661Z,22.13
2023-04-22T18:46:22.190Z,22.10
2023-04-22T18:48:50.789Z,22.07
2023-04-22T18:51:19.170Z,22.05
2023-04-22T18:53:49.195Z,22.03
2023-04-22T18:56:17.356Z,22.02
2023-04-22T18:58:45.520Z,21.99
2023-04-22T19:01:14.550Z,21.96
2023-04-22T19:03:43.120Z,21.94
2023-04-22T19:06:14.116Z,21.93
2023-04-22T19:08:42.204Z,21.94
2023-04-22T19:11:10.354Z,21.95
2023-04-22T19:13:38.924Z,21.95
2023-04-22T19:16:07.091Z,21.97
2023-04-22T19:18:35.195Z,21.98
2023-04-22T19:21:03.486Z,21.99
2023-04-22T19:23:32.111Z,22.05
2023-04-22T19:26:00.048Z,22.11
2023-04-22T19:28:28.833Z,22.12
2023-04-22T19:30:56.856Z,22.10
2023-04-22T19:33:25.080Z,22.06
2023-04-22T19:35:53.082Z,21.98
2023-04-22T19:38:22.516Z,21.95
2023-04-22T19:40:50.906Z,21.92
2023-04-22T19:43:19.411Z,21.88
2023-04-22T19:45:47.475Z,21.82
2023-04-22T19:48:15.725Z,21.80
2023-04-22T19:50:43.918Z,21.79
2023-04-22T19:53:12.129Z,21.80
2023-04-22T19:55:40.823Z,21.80
2023-04-22T19:58:09.367Z,21.79
2023-04-22T20:00:38.962Z,21.81
2023-04-22T20:03:07.600Z,21.78
2023-04-22T20:05:37.344Z,21.76
2023-04-22T20:08:05.557Z,21.76
2023-04-22T20:10:33.972Z,21.77
2023-04-22T20:13:04.063Z,21.78
2023-04-22T20:15:34.093Z,21.80
2023-04-22T20:18:02.243Z,21.82
2023-04-22T20:20:32.275Z,21.84
2023-04-22T20:23:01.792Z,21.85
2023-04-22T20:25:30.960Z,21.87
2023-04-22T20:27:59.012Z,21.89
2023-04-22T20:30:27.289Z,21.91
2023-04-22T20:32:56.402Z,21.93
2023-04-22T20:35:24.946Z,21.93
2023-04-22T20:37:54.055Z,21.92
2023-04-22T20:40:23.358Z,21.92
2023-04-22T20:42:53.119Z,21.91
2023-04-22T20:45:21.084Z,21.89
2023-04-22T20:47:49.112Z,21.89
2023-04-22T20:50:17.464Z,21.86
2023-04-22T20:52:47.471Z,21.82
2023-04-22T20:55:16.675Z,21.79
2023-04-22T20:57:45.073Z,21.75
2023-04-22T21:00:14.233Z,21.71
2023-04-22T21:02:43.635Z,21.69
2023-04-22T21:05:12.217Z,21.64
2023-04-22T21:07:41.483Z,21.59
2023-04-22T21:10:10.192Z,21.55
2023-04-22T21:12:38.472Z,21.56
2023-04-22T21:15:07.366Z,21.55
2023-04-22T21:17:35.681Z,21.57
2023-04-22T21:20:05.545Z,21.58
2023-04-22T21:22:33.704Z,21.57
2023-04-22T21:25:01.753Z,21.57
2023-04-22T21:27:30.282Z,21.54
2023-04-22T21:29:59.399Z,21.46
2023-04-22T21:32:27.666Z,21.41
2023-04-22T21:34:56.815Z,21.38
2023-04-22T21:37:24.991Z,21.33
2023-04-22T21:39:53.084Z,21.31
2023-04-22T21:42:21.096Z,21.27
2023-04-22T21:44:49.987Z,21.22
2023-04-22T21:47:18.006Z,21.21
2023-04-22T21:49:47.208Z,21.23
2023-04-22T21:52:16.420Z,21.24
2023-04-22T21:54:44.629Z,21.32
2023-04-22T21:57:13.321Z,21.36
2023-04-22T21:59:41.617Z,21.30
2023-04-22T22:02:09.665Z,21.25
2023-04-22T22:04:37.972Z,21.23
2023-04-22T22:07:06.661Z,21.23
2023-04-22T22:09:35.170Z,21.25
2023-04-22T22:12:04.196Z,21.25
2023-04-22T22:14:32.592Z,21.25
2023-04-22T22:17:01.531Z,21.24
2023-04-22T22:19:30.755Z,21.22
2023-04-22T22:21:58.765Z,21.20
2023-04-22T22:24:27.096Z,21.20
2023-04-22T22:26:55.242Z,21.26
2023-04-22T22:29:23.495Z,21.27
2023-04-22T22:31:51.641Z,21.28
2023-04-22T22:34:19.688Z,21.28
2023-04-22T22:36:47.761Z,21.28
2023-04-22T22:39:16.448Z,21.28
2023-04-22T22:41:44.459Z,21.27
2023-04-22T22:44:12.536Z,21.25
2023-04-22T22:46:40.724Z,21.21
2023-04-22T22:49:09.354Z,21.14
2023-04-22T22:51:37.601Z,21.07
2023-04-22T22:54:05.902Z,21.01
2023-04-22T22:56:34.059Z,20.99
2023-04-22T22:59:02.226Z,20.97
2023-04-22T23:01:30.294Z,20.94
2023-04-22T23:03:58.511Z,20.88
2023-04-22T23:06:27.262Z,20.83
2023-04-22T23:08:55.531Z,20.79
2023-04-22T23:11:23.573Z,20.76
2023-04-22T23:13:51.546Z,20.75
2023-04-22T23:16:19.619Z,20.73
2023-04-22T23:18:48.127Z,20.72
2023-04-22T23:21:16.345Z,20.72
2023-04-22T23:23:44.350Z,20.74
2023-04-22T23:26:12.605Z,20.73
2023-04-22T23:28:40.848Z,20.71
2023-04-22T23:31:09.043Z,20.69
2023-04-22T23:33:37.124Z,20.67
2023-04-22T23:36:06.130Z,20.64
2023-04-22T23:38:34.369Z,20.62
2023-04-22T23:41:02.323Z,20.60
2023-04-22T23:43:30.421Z,20.60
2023-04-22T23:45:58.646Z,20.61
2023-04-22T23:48:26.633Z,20.63
2023-04-22T23:50:54.932Z,20.63
2023-04-22T23:53:23.016Z,20.62
2023-04-22T23:55:51.568Z,20.61
2023-04-22T23:58:19.770Z,20.59
